Time;durP1;ratioP1;P1;durP2;ratioP2;P2;SDS_P1;SDS_P2;PMS_P1;PMS_P2;Temp;Humidity;BMP_temperature;BMP_pressure;BME280_temperature;BME280_humidity;BME280_pressure;Samples;Min_cycle;Max_cycle;Signal;HPM_P1;HPM_P2
2021/06/23 00:01:28;;;;;;;5.55;1.90;;;24.70;62.30;;;;;;5092183;28;20491;-71
2021/06/23 00:03:53;;;;;;;4.25;2.35;;;24.60;62.30;;;;;;5092229;28;20114;-71
2021/06/23 00:06:19;;;;;;;6.88;2.55;;;24.60;62.40;;;;;;5096588;28;20039;-71
2021/06/23 00:08:44;;;;;;;4.75;2.20;;;24.60;63.30;;;;;;5096743;28;20094;-72
2021/06/23 00:11:10;;;;;;;3.83;2.20;;;24.60;62.50;;;;;;5093520;28;20450;-71
2021/06/23 00:13:36;;;;;;;5.65;2.10;;;24.60;62.60;;;;;;5090753;28;20024;-71
2021/06/23 00:16:05;;;;;;;5.95;2.22;;;24.60;62.60;;;;;;5092143;28;20025;-71
2021/06/23 00:18:31;;;;;;;5.03;3.45;;;24.60;62.60;;;;;;5091781;28;20028;-71
2021/06/23 00:20:57;;;;;;;5.93;2.47;;;24.60;62.60;;;;;;5091972;28;20043;-71
2021/06/23 00:23:23;;;;;;;2.90;1.77;;;24.60;62.50;;;;;;5091823;28;20024;-71
2021/06/23 00:25:49;;;;;;;6.35;2.17;;;24.60;62.50;;;;;;5092063;28;20463;-71
2021/06/23 00:28:15;;;;;;;3.63;2.20;;;24.50;62.30;;;;;;5091737;28;20028;-71
2021/06/23 00:30:41;;;;;;;7.03;2.70;;;24.50;62.30;;;;;;5091693;28;20020;-71
2021/06/23 00:33:10;;;;;;;6.53;2.10;;;24.50;62.20;;;;;;5092086;28;20476;-71
2021/06/23 00:35:36;;;;;;;2.80;1.98;;;24.50;62.20;;;;;;5091755;28;20128;-71
2021/06/23 00:38:02;;;;;;;6.65;2.47;;;24.50;62.10;;;;;;5091681;28;20039;-71
2021/06/23 00:40:29;;;;;;;6.88;2.10;;;24.50;62.00;;;;;;5091472;28;20031;-71
2021/06/23 00:42:55;;;;;;;4.20;2.20;;;24.50;62.00;;;;;;5093444;28;20030;-71
2021/06/23 00:45:21;;;;;;;7.47;2.03;;;24.50;62.00;;;;;;5093894;28;20028;-70
2021/06/23 00:47:48;;;;;;;4.30;1.80;;;24.50;62.00;;;;;;5095304;28;20046;-70
2021/06/23 00:50:16;;;;;;;6.40;2.25;;;24.50;62.00;;;;;;5094969;28;20020;-71
2021/06/23 00:52:42;;;;;;;4.63;2.30;;;24.50;61.90;;;;;;5095276;28;20028;-70
2021/06/23 00:55:09;;;;;;;4.57;2.10;;;24.60;61.90;;;;;;5094744;28;20106;-68
2021/06/23 00:57:38;;;;;;;3.55;2.83;;;24.50;62.00;;;;;;5095211;28;20484;-72
2021/06/23 01:00:05;;;;;;;4.43;2.10;;;24.50;62.10;;;;;;5095276;28;20024;-72
2021/06/23 01:02:31;;;;;;;8.30;2.53;;;24.50;62.10;;;;;;5094902;28;20024;-72
2021/06/23 01:04:58;;;;;;;3.50;2.00;;;24.50;61.90;;;;;;5095033;28;20421;-72
2021/06/23 01:07:24;;;;;;;8.38;2.47;;;24.40;61.80;;;;;;5094497;28;20039;-72
2021/06/23 01:09:54;;;;;;;5.07;2.17;;;24.40;61.70;;;;;;5094798;28;20131;-72
2021/06/23 01:12:28;;;;;;;6.43;1.90;;;24.40;61.60;;;;;;5094735;28;20035;-72
2021/06/23 01:14:59;;;;;;;4.32;2.70;;;24.40;61.60;;;;;;5094699;28;20455;-72
2021/06/23 01:17:31;;;;;;;6.32;2.03;;;24.40;61.60;;;;;;5094642;28;20091;-72
2021/06/23 01:20:10;;;;;;;5.22;2.40;;;24.40;61.60;;;;;;5094371;28;20028;-72
2021/06/23 01:22:38;;;;;;;3.13;1.77;;;24.40;61.70;;;;;;5093556;28;20028;-71
2021/06/23 01:25:08;;;;;;;6.50;2.10;;;24.40;61.70;;;;;;5094972;28;20024;-72
2021/06/23 01:27:34;;;;;;;3.67;1.90;;;24.40;61.70;;;;;;5093221;28;20040;-73
2021/06/23 01:30:00;;;;;;;3.63;2.15;;;24.40;61.80;;;;;;5094779;28;20261;-74
2021/06/23 01:32:25;;;;;;;5.57;2.58;;;24.40;61.80;;;;;;5094269;28;20027;-73
2021/06/23 01:34:51;;;;;;;6.43;2.40;;;24.40;61.90;;;;;;5094334;28;20353;-73
2021/06/23 01:37:17;;;;;;;4.40;2.10;;;24.40;61.90;;;;;;5094326;28;20153;-74
2021/06/23 01:39:42;;;;;;;5.18;2.00;;;24.40;62.10;;;;;;5094459;28;20452;-73
2021/06/23 01:42:08;;;;;;;3.67;1.85;;;24.40;62.10;;;;;;5094155;28;20031;-71
2021/06/23 01:44:34;;;;;;;7.60;3.35;;;24.40;62.90;;;;;;5094259;28;20103;-71
2021/06/23 01:47:02;;;;;;;2.63;1.60;;;24.40;62.30;;;;;;5094116;28;20395;-71
2021/06/23 01:49:28;;;;;;;5.90;2.20;;;24.40;62.30;;;;;;5092435;28;20528;-71
2021/06/23 01:51:54;;;;;;;5.00;1.60;;;24.30;62.40;;;;;;5094172;28;20063;-71
2021/06/23 01:54:20;;;;;;;5.18;2.33;;;24.30;62.40;;;;;;5093650;28;20062;-71
2021/06/23 01:56:46;;;;;;;7.13;2.50;;;24.40;62.30;;;;;;5093943;28;20032;-71
2021/06/23 01:59:13;;;;;;;4.25;1.95;;;24.40;62.30;;;;;;5093908;28;20027;-71
2021/06/23 02:01:47;;;;;;;4.55;2.10;;;24.30;62.30;;;;;;5093825;28;20533;-71
2021/06/23 02:04:51;;;;;;;5.25;2.53;;;24.30;62.30;;;;;;5093727;28;20043;-68
2021/06/23 02:07:54;;;;;;;6.15;2.03;;;24.30;62.30;;;;;;5075090;28;20488;-71
2021/06/23 02:10:53;;;;;;;3.78;2.13;;;24.30;62.40;;;;;;5093305;28;20048;-71
2021/06/23 02:13:44;;;;;;;9.73;2.00;;;24.30;62.30;;;;;;5093712;28;20016;-71
2021/06/23 02:16:11;;;;;;;8.23;2.85;;;24.30;62.50;;;;;;5085714;28;20047;-72
2021/06/23 02:18:38;;;;;;;5.50;2.40;;;24.30;62.50;;;;;;5096795;28;20099;-71
2021/06/23 02:21:05;;;;;;;9.18;2.42;;;24.30;62.60;;;;;;5093389;28;20618;-74
2021/06/23 02:23:35;;;;;;;8.48;2.25;;;24.30;62.60;;;;;;5093753;28;20491;-73
2021/06/23 02:26:02;;;;;;;9.30;3.25;;;24.20;62.60;;;;;;5093453;28;20385;-73
2021/06/23 02:28:28;;;;;;;5.25;2.40;;;24.20;62.60;;;;;;5093221;28;20036;-73
2021/06/23 02:30:54;;;;;;;4.70;2.30;;;24.20;62.60;;;;;;5093055;28;20078;-70
2021/06/23 02:33:20;;;;;;;3.97;2.10;;;24.20;62.60;;;;;;5093393;28;20113;-71
2021/06/23 02:35:48;;;;;;;5.03;1.98;;;24.20;62.60;;;;;;5092893;28;20031;-70
2021/06/23 02:38:14;;;;;;;4.97;2.13;;;24.20;62.70;;;;;;5093359;28;20121;-71
2021/06/23 02:40:40;;;;;;;9.00;2.33;;;24.20;62.80;;;;;;5092997;28;20455;-71
2021/06/23 02:43:06;;;;;;;4.50;2.38;;;24.20;62.80;;;;;;5091894;28;20036;-71
2021/06/23 02:45:32;;;;;;;7.28;2.95;;;24.20;62.80;;;;;;5092799;28;20103;-72
2021/06/23 02:47:58;;;;;;;3.85;1.92;;;24.20;62.80;;;;;;5092871;28;20388;-70
2021/06/23 02:50:28;;;;;;;5.13;2.17;;;24.20;62.80;;;;;;5092857;28;20023;-70
2021/06/23 02:52:54;;;;;;;4.32;2.00;;;24.20;62.70;;;;;;5093162;28;20028;-70
2021/06/23 02:55:20;;;;;;;5.25;2.22;;;24.20;63.50;;;;;;5092539;28;20111;-70
2021/06/23 02:57:48;;;;;;;4.32;2.00;;;24.20;62.80;;;;;;5093053;28;20109;-70
2021/06/23 03:00:15;;;;;;;4.43;2.00;;;24.20;62.90;;;;;;5092734;28;20031;-71
2021/06/23 03:02:40;;;;;;;5.13;1.95;;;24.20;63.00;;;;;;5092871;28;20055;-71
2021/06/23 03:05:07;;;;;;;4.93;2.10;;;24.20;63.10;;;;;;5091927;28;20064;-71
2021/06/23 03:07:32;;;;;;;3.63;2.47;;;24.20;63.20;;;;;;5091103;28;20036;-70
2021/06/23 03:10:11;;;;;;;6.13;1.90;;;24.20;63.20;;;;;;5092596;28;20096;-70
2021/06/23 03:12:36;;;;;;;4.13;2.38;;;24.20;63.20;;;;;;5092372;28;20481;-70
2021/06/23 03:15:04;;;;;;;4.53;2.35;;;24.20;63.30;;;;;;5092774;28;20032;-70
2021/06/23 03:17:30;;;;;;;4.35;2.30;;;24.20;63.50;;;;;;5092417;28;20089;-70
2021/06/23 03:19:55;;;;;;;4.03;2.35;;;24.20;63.60;;;;;;5092417;28;20024;-70
2021/06/23 03:22:21;;;;;;;6.75;2.13;;;24.20;63.70;;;;;;5092483;28;20052;-70
2021/06/23 03:24:47;;;;;;;5.60;2.40;;;24.20;63.80;;;;;;5092672;28;20067;-71
2021/06/23 03:27:13;;;;;;;5.15;2.20;;;24.20;63.80;;;;;;5092032;28;20044;-71
2021/06/23 03:29:39;;;;;;;7.03;3.03;;;24.20;63.90;;;;;;5091071;28;20036;-71
2021/06/23 03:32:08;;;;;;;6.80;2.50;;;24.20;63.90;;;;;;5090938;28;20490;-70
2021/06/23 03:34:33;;;;;;;3.42;2.10;;;24.20;63.90;;;;;;5092643;28;20105;-70
2021/06/23 03:36:59;;;;;;;4.10;2.47;;;24.20;64.00;;;;;;5092265;28;20028;-70
2021/06/23 03:39:27;;;;;;;6.55;3.08;;;24.20;64.00;;;;;;5092388;28;20054;-70
2021/06/23 03:41:52;;;;;;;5.32;2.75;;;24.20;64.00;;;;;;5090987;28;20418;-70
2021/06/23 03:44:18;;;;;;;9.88;2.55;;;24.20;64.00;;;;;;5092323;28;20085;-71
2021/06/23 03:46:44;;;;;;;3.95;2.67;;;24.20;64.00;;;;;;5092263;28;20032;-71
2021/06/23 03:49:09;;;;;;;5.55;2.50;;;24.10;63.90;;;;;;5092319;28;20050;-71
2021/06/23 03:51:35;;;;;;;6.07;2.40;;;24.10;63.80;;;;;;5092363;28;20107;-71
2021/06/23 03:54:01;;;;;;;6.45;3.03;;;24.10;63.80;;;;;;5090771;28;20479;-71
2021/06/23 03:56:28;;;;;;;6.32;2.28;;;24.10;63.70;;;;;;5092007;28;20036;-71
2021/06/23 03:58:54;;;;;;;8.88;2.63;;;24.10;63.60;;;;;;5092110;28;20682;-71
2021/06/23 04:01:19;;;;;;;4.97;2.28;;;24.10;63.70;;;;;;5092613;28;20150;-71
2021/06/23 04:03:45;;;;;;;4.30;2.70;;;24.10;63.60;;;;;;5092074;28;20487;-71
2021/06/23 04:06:11;;;;;;;5.47;2.70;;;24.10;63.70;;;;;;5092591;28;20054;-71
2021/06/23 04:08:36;;;;;;;4.07;2.35;;;24.10;63.60;;;;;;5090602;28;20024;-71
2021/06/23 04:11:02;;;;;;;3.80;2.42;;;24.10;63.60;;;;;;5092154;28;20059;-72
2021/06/23 04:13:28;;;;;;;6.35;2.10;;;24.10;63.60;;;;;;5092217;28;20055;-69
2021/06/23 04:15:54;;;;;;;5.90;2.38;;;24.10;63.60;;;;;;5092157;28;20414;-69
2021/06/23 04:18:19;;;;;;;6.00;3.05;;;24.10;64.20;;;;;;5095991;28;20025;-69
2021/06/23 04:20:45;;;;;;;3.90;2.33;;;24.00;63.30;;;;;;5095807;28;20032;-70
2021/06/23 04:23:10;;;;;;;5.38;2.50;;;24.00;63.20;;;;;;5096524;28;20078;-71
2021/06/23 04:25:36;;;;;;;4.00;2.15;;;24.00;63.10;;;;;;5098054;28;20062;-70
2021/06/23 04:28:02;;;;;;;4.90;2.30;;;24.00;63.10;;;;;;5096429;28;20031;-69
2021/06/23 04:30:27;;;;;;;5.43;2.63;;;24.00;63.10;;;;;;5095504;28;20024;-69
2021/06/23 04:32:53;;;;;;;12.63;3.40;;;24.00;63.10;;;;;;5095633;28;20202;-70
2021/06/23 04:35:19;;;;;;;5.07;2.30;;;24.00;63.20;;;;;;5095838;28;20086;-70
2021/06/23 04:37:45;;;;;;;6.13;2.08;;;24.00;63.10;;;;;;5095669;28;20581;-72
2021/06/23 04:40:14;;;;;;;3.85;2.15;;;24.00;63.00;;;;;;5095197;28;20031;-71
2021/06/23 04:42:40;;;;;;;7.70;2.88;;;24.00;63.00;;;;;;5095747;28;20035;-72
2021/06/23 04:45:08;;;;;;;20.20;3.22;;;24.00;63.00;;;;;;5095226;28;20091;-73
2021/06/23 04:47:37;;;;;;;8.05;2.53;;;24.00;62.90;;;;;;5095578;28;20028;-71
2021/06/23 04:50:05;;;;;;;7.40;3.17;;;24.00;62.80;;;;;;5095465;28;20093;-71
2021/06/23 04:52:31;;;;;;;3.55;2.00;;;24.00;62.90;;;;;;5095128;28;20027;-71
2021/06/23 04:54:56;;;;;;;7.80;2.20;;;24.00;62.90;;;;;;5094868;28;20028;-70
2021/06/23 04:57:22;;;;;;;6.95;2.35;;;24.00;63.00;;;;;;5095501;28;20031;-71
2021/06/23 04:59:48;;;;;;;6.28;2.97;;;23.90;63.10;;;;;;5095223;28;20028;-71
2021/06/23 05:02:14;;;;;;;5.60;2.67;;;23.90;63.20;;;;;;5094806;28;20035;-71
2021/06/23 05:04:40;;;;;;;3.60;2.40;;;24.00;63.20;;;;;;5095098;28;20101;-71
2021/06/23 05:07:07;;;;;;;4.78;2.35;;;24.00;63.10;;;;;;5094732;28;20062;-71
2021/06/23 05:09:35;;;;;;;4.18;2.10;;;24.00;63.00;;;;;;5094557;28;20028;-70
2021/06/23 05:12:01;;;;;;;5.97;2.58;;;24.00;62.80;;;;;;5094913;28;20031;-71
2021/06/23 05:14:27;;;;;;;4.55;2.40;;;24.00;62.80;;;;;;5095004;28;20024;-70
2021/06/23 05:16:53;;;;;;;6.32;2.33;;;24.00;62.80;;;;;;5094897;28;20052;-71
2021/06/23 05:19:20;;;;;;;4.53;2.53;;;24.00;62.80;;;;;;5094542;28;20072;-71
2021/06/23 05:21:46;;;;;;;4.03;2.33;;;24.00;62.90;;;;;;5094466;28;20035;-70
2021/06/23 05:24:12;;;;;;;6.97;2.10;;;24.00;62.90;;;;;;5094683;28;20028;-71
2021/06/23 05:26:38;;;;;;;7.22;2.40;;;24.00;62.60;;;;;;5094732;28;20100;-70
2021/06/23 05:29:04;;;;;;;5.07;2.58;;;24.10;62.30;;;;;;5093806;28;20472;-71
2021/06/23 05:31:32;;;;;;;4.03;2.38;;;24.10;62.10;;;;;;5094614;28;20024;-71
2021/06/23 05:33:58;;;;;;;4.13;2.40;;;24.00;61.70;;;;;;5094394;28;20109;-69
2021/06/23 05:36:23;;;;;;;3.78;2.05;;;24.00;61.60;;;;;;5094564;28;20086;-71
2021/06/23 05:38:49;;;;;;;3.00;2.30;;;24.10;61.40;;;;;;5094170;28;20024;-71
2021/06/23 05:41:15;;;;;;;6.63;2.33;;;24.10;61.20;;;;;;5094533;28;20031;-71
2021/06/23 05:43:41;;;;;;;3.88;2.65;;;24.00;61.00;;;;;;5094239;28;20024;-71
2021/06/23 05:46:07;;;;;;;5.88;2.33;;;24.00;60.90;;;;;;5094437;28;20020;-71
2021/06/23 05:48:32;;;;;;;6.78;2.20;;;24.10;60.90;;;;;;5093919;28;20031;-71
2021/06/23 05:50:58;;;;;;;3.85;2.10;;;24.10;60.90;;;;;;5094199;28;20052;-70
2021/06/23 05:53:24;;;;;;;3.88;2.30;;;24.10;60.90;;;;;;5093967;28;20035;-72
2021/06/23 05:55:49;;;;;;;4.70;2.58;;;24.10;60.90;;;;;;5094105;28;20046;-71
2021/06/23 05:58:15;;;;;;;6.85;2.35;;;24.10;60.90;;;;;;5093767;28;20365;-71
2021/06/23 06:00:41;;;;;;;3.25;2.00;;;24.10;60.90;;;;;;5094107;28;20024;-71
2021/06/23 06:03:07;;;;;;;3.30;2.42;;;24.10;60.90;;;;;;5093843;28;20035;-71
2021/06/23 06:05:33;;;;;;;4.72;2.15;;;24.10;61.00;;;;;;5093903;28;20031;-69
2021/06/23 06:07:59;;;;;;;5.40;2.50;;;24.10;61.00;;;;;;5093848;28;20036;-72
2021/06/23 06:10:25;;;;;;;3.47;2.28;;;24.20;61.10;;;;;;5093613;28;20039;-71
2021/06/23 06:12:51;;;;;;;4.43;2.42;;;24.20;61.10;;;;;;5093841;28;20032;-71
2021/06/23 06:15:17;;;;;;;5.40;2.30;;;24.20;61.10;;;;;;5093694;28;20028;-72
2021/06/23 06:17:43;;;;;;;8.75;2.58;;;24.20;61.10;;;;;;5092466;28;20052;-76
2021/06/23 06:20:10;;;;;;;4.75;2.83;;;24.10;61.10;;;;;;5093194;28;20067;-69
2021/06/23 06:22:36;;;;;;;7.43;2.08;;;24.10;61.20;;;;;;5092420;28;20376;-70
2021/06/23 06:25:03;;;;;;;4.43;2.58;;;24.10;61.40;;;;;;5093506;28;20028;-69
2021/06/23 06:27:29;;;;;;;4.03;2.10;;;24.10;61.40;;;;;;5093614;28;20081;-71
2021/06/23 06:29:55;;;;;;;5.82;1.98;;;24.10;61.50;;;;;;5093502;28;20103;-71
2021/06/23 06:32:20;;;;;;;7.35;2.50;;;24.10;61.60;;;;;;5094920;28;20361;-71
2021/06/23 06:34:46;;;;;;;4.28;3.08;;;24.10;61.60;;;;;;5095665;28;20028;-73
2021/06/23 06:37:12;;;;;;;6.47;2.53;;;24.10;61.50;;;;;;5093864;28;20436;-71
2021/06/23 06:39:38;;;;;;;5.90;2.50;;;24.10;61.50;;;;;;5091373;28;20036;-71
2021/06/23 06:42:04;;;;;;;6.40;3.25;;;24.10;61.40;;;;;;5091957;28;20028;-70
2021/06/23 06:44:31;;;;;;;9.80;3.65;;;24.20;61.60;;;;;;5093695;28;20055;-71
2021/06/23 06:46:58;;;;;;;3.78;2.25;;;24.20;61.70;;;;;;5093021;28;20028;-72
2021/06/23 06:49:27;;;;;;;6.38;2.50;;;24.20;61.80;;;;;;5092713;28;20479;-70
2021/06/23 06:51:56;;;;;;;6.57;2.30;;;24.10;61.90;;;;;;5093176;28;20114;-71
2021/06/23 06:54:22;;;;;;;5.10;2.78;;;24.20;62.30;;;;;;5093200;28;20104;-71
2021/06/23 06:56:48;;;;;;;5.93;2.50;;;24.20;62.30;;;;;;5093277;28;20040;-71
2021/06/23 06:59:14;;;;;;;5.03;2.50;;;24.20;62.50;;;;;;5093050;28;20063;-70
2021/06/23 07:01:39;;;;;;;5.35;2.47;;;24.10;62.30;;;;;;5092677;28;20479;-68
2021/06/23 07:04:05;;;;;;;5.38;2.42;;;24.20;62.70;;;;;;5092751;28;20026;-69
2021/06/23 07:06:31;;;;;;;6.25;2.88;;;24.20;62.80;;;;;;5092976;28;20471;-71
2021/06/23 07:08:56;;;;;;;4.72;2.40;;;24.20;62.80;;;;;;5092823;28;20042;-69
2021/06/23 07:11:22;;;;;;;4.78;2.88;;;24.20;62.80;;;;;;5092385;28;20044;-71
2021/06/23 07:13:47;;;;;;;5.05;2.28;;;24.10;63.00;;;;;;5091294;28;20541;-71
2021/06/23 07:16:13;;;;;;;3.53;2.40;;;24.10;63.30;;;;;;5092397;28;20052;-71
2021/06/23 07:18:39;;;;;;;7.57;3.10;;;23.90;63.40;;;;;;5092377;28;20036;-69
2021/06/23 07:21:05;;;;;;;6.32;2.92;;;23.90;63.50;;;;;;5092808;28;20476;-74
2021/06/23 07:23:30;;;;;;;8.35;3.72;;;23.70;63.70;;;;;;5092954;28;20109;-75
2021/06/23 07:25:56;;;;;;;17.95;11.40;;;23.70;64.10;;;;;;5092306;28;20073;-74
2021/06/23 07:28:37;;;;;;;15.80;11.95;;;23.80;64.30;;;;;;5092612;28;20028;-74
2021/06/23 07:31:06;;;;;;;19.48;15.05;;;23.70;64.50;;;;;;5092216;28;20166;-75
2021/06/23 07:33:32;;;;;;;54.90;42.65;;;23.60;64.40;;;;;;5092538;28;20028;-75
2021/06/23 07:38:41;;;;;;;22.40;17.98;;;23.80;64.30;;;;;;5092682;28;20035;-75
2021/06/23 07:41:07;;;;;;;18.67;12.80;;;23.90;64.20;;;;;;5092452;28;20020;-72
2021/06/23 07:43:33;;;;;;;20.05;16.02;;;23.90;64.40;;;;;;5092395;28;20020;-70
2021/06/23 07:46:00;;;;;;;20.38;15.38;;;23.90;64.40;;;;;;5092130;28;20032;-71
2021/06/23 07:48:33;;;;;;;19.90;14.10;;;23.90;64.20;;;;;;5091968;28;20097;-70
2021/06/23 08:15:16;;;;;;;25.92;21.15;;;24.20;63.60;;;;;;5096136;28;20028;-70
2021/06/23 08:17:42;;;;;;;24.58;19.20;;;24.20;63.60;;;;;;5096053;28;20024;-71
2021/06/23 08:20:08;;;;;;;24.20;17.77;;;24.20;63.60;;;;;;5095760;28;20107;-71
2021/06/23 08:22:34;;;;;;;19.95;15.55;;;24.20;63.60;;;;;;5094779;28;20024;-70
2021/06/23 08:24:59;;;;;;;21.60;16.40;;;24.20;63.50;;;;;;5095833;28;20020;-71
2021/06/23 08:27:25;;;;;;;18.08;15.10;;;24.20;63.50;;;;;;5095514;28;20032;-70
2021/06/23 08:29:51;;;;;;;22.23;14.88;;;24.20;63.50;;;;;;5095539;28;20073;-70
2021/06/23 08:32:16;;;;;;;17.77;13.13;;;24.20;63.50;;;;;;5096001;28;20024;-71
2021/06/23 08:34:42;;;;;;;17.38;13.63;;;24.20;63.50;;;;;;5095629;28;20383;-71
2021/06/23 08:37:08;;;;;;;13.77;12.07;;;24.20;63.50;;;;;;5095692;28;20035;-71
2021/06/23 08:39:33;;;;;;;16.33;12.77;;;24.20;63.50;;;;;;5094201;28;20024;-71
2021/06/23 08:41:59;;;;;;;17.13;12.00;;;24.20;63.60;;;;;;5095321;28;20032;-70
2021/06/23 08:44:25;;;;;;;15.60;10.95;;;24.20;63.60;;;;;;5096496;28;20058;-71
2021/06/23 08:46:51;;;;;;;15.02;10.88;;;24.20;63.70;;;;;;5096515;28;20032;-70
2021/06/23 08:49:18;;;;;;;11.70;10.27;;;24.20;63.70;;;;;;5095383;28;20060;-71
2021/06/23 08:51:44;;;;;;;12.32;8.75;;;24.20;63.70;;;;;;5095443;28;20464;-72
2021/06/23 08:54:11;;;;;;;12.82;9.38;;;24.20;63.70;;;;;;5095233;28;20111;-70
2021/06/23 08:56:37;;;;;;;13.88;9.27;;;24.20;63.70;;;;;;5095185;28;20023;-70
2021/06/23 08:59:04;;;;;;;10.45;7.40;;;24.20;63.70;;;;;;5095431;28;20028;-70
2021/06/23 09:01:32;;;;;;;10.60;8.82;;;24.20;63.80;;;;;;5095187;28;20074;-70
2021/06/23 09:04:03;;;;;;;11.07;7.50;;;24.20;63.70;;;;;;5094203;28;20035;-71
2021/06/23 09:06:43;;;;;;;9.52;6.30;;;24.20;63.60;;;;;;5094728;28;20028;-72
2021/06/23 09:09:20;;;;;;;9.85;6.90;;;24.30;63.60;;;;;;5094721;28;20056;-71
2021/06/23 09:11:47;;;;;;;10.32;7.88;;;24.30;63.50;;;;;;5095143;28;20044;-71
2021/06/23 09:14:14;;;;;;;8.77;7.88;;;24.30;63.60;;;;;;5094896;28;20020;-72
2021/06/23 09:17:15;;;;;;;8.88;6.78;;;24.30;63.60;;;;;;5094679;28;20024;-71
2021/06/23 09:19:47;;;;;;;8.95;6.35;;;24.30;63.50;;;;;;5093223;28;20095;-72
2021/06/23 09:22:34;;;;;;;8.90;6.80;;;24.30;63.60;;;;;;5095231;28;20120;-70
2021/06/23 09:25:10;;;;;;;9.32;6.30;;;24.30;63.50;;;;;;5094819;28;20032;-70
2021/06/23 09:27:36;;;;;;;7.95;5.68;;;24.30;63.50;;;;;;5094439;28;20078;-71
2021/06/23 09:30:24;;;;;;;11.98;7.25;;;24.30;63.50;;;;;;5094468;28;20476;-71
2021/06/23 09:33:09;;;;;;;8.27;5.95;;;24.30;63.50;;;;;;5094554;28;20494;-72
2021/06/23 09:35:37;;;;;;;8.55;6.28;;;24.30;63.40;;;;;;5094552;28;20043;-71
2021/06/23 09:38:03;;;;;;;10.05;6.18;;;24.30;63.40;;;;;;5093007;28;20032;-70
2021/06/23 09:40:30;;;;;;;8.90;5.10;;;24.30;63.40;;;;;;5093001;28;20064;-70
2021/06/23 09:43:02;;;;;;;9.32;4.43;;;24.30;63.20;;;;;;5094257;28;20368;-70
2021/06/23 09:45:31;;;;;;;8.27;4.47;;;24.30;63.20;;;;;;5094590;28;20099;-70
2021/06/23 09:47:59;;;;;;;6.85;4.55;;;24.30;63.20;;;;;;5094042;28;20477;-70
2021/06/23 10:07:44;;;;;;;7.70;4.90;;;24.30;63.10;;;;;;5093668;28;20073;-70
2021/06/23 10:10:13;;;;;;;6.60;4.35;;;24.30;63.20;;;;;;5093899;28;20044;-70
2021/06/23 10:12:39;;;;;;;5.22;4.18;;;24.30;63.20;;;;;;5093765;28;20016;-70
2021/06/23 10:15:05;;;;;;;7.13;4.47;;;24.30;63.10;;;;;;5093878;28;20080;-71
2021/06/23 10:17:32;;;;;;;6.10;5.45;;;24.30;63.10;;;;;;5093579;28;20039;-71
2021/06/23 10:20:02;;;;;;;7.00;4.30;;;24.30;63.00;;;;;;5072917;28;20052;-70
2021/06/23 10:22:28;;;;;;;6.63;4.40;;;24.30;63.00;;;;;;5071747;28;20054;-70
2021/06/23 10:24:56;;;;;;;7.47;4.72;;;24.30;63.10;;;;;;5073624;28;20078;-71
2021/06/23 10:27:23;;;;;;;5.25;4.05;;;24.30;63.00;;;;;;5073179;28;20036;-71
2021/06/23 10:29:57;;;;;;;8.80;4.55;;;24.30;63.00;;;;;;5073063;28;20035;-71
2021/06/23 10:32:23;;;;;;;5.85;4.05;;;24.30;63.20;;;;;;5073294;28;20024;-71
2021/06/23 10:34:49;;;;;;;6.18;3.75;;;24.40;63.00;;;;;;5072870;28;20457;-71
2021/06/23 10:37:15;;;;;;;7.20;4.32;;;24.30;63.00;;;;;;5073239;28;20116;-71
2021/06/23 10:39:42;;;;;;;7.32;4.85;;;24.40;63.00;;;;;;5073002;28;20024;-71
2021/06/23 10:42:09;;;;;;;6.68;4.32;;;24.40;63.10;;;;;;5071666;28;20036;-70
2021/06/23 10:44:37;;;;;;;7.28;4.05;;;24.40;63.00;;;;;;5072899;28;20504;-71
2021/06/23 10:47:06;;;;;;;8.27;5.35;;;24.40;63.00;;;;;;5072861;28;20029;-70
2021/06/23 10:49:51;;;;;;;6.13;4.32;;;24.40;63.00;;;;;;5072361;28;20024;-70
2021/06/23 10:52:20;;;;;;;5.07;4.13;;;24.40;63.00;;;;;;5072947;28;20109;-71
2021/06/23 10:54:46;;;;;;;7.22;4.13;;;24.40;63.10;;;;;;5072495;28;20028;-71
2021/06/23 10:57:40;;;;;;;9.27;4.78;;;24.30;63.00;;;;;;5073551;28;20495;-70
2021/06/23 11:00:12;;;;;;;6.07;4.00;;;24.40;63.10;;;;;;5074476;28;20481;-71
2021/06/23 11:02:42;;;;;;;6.35;4.97;;;24.40;63.00;;;;;;5073028;28;20107;-71
2021/06/23 11:05:14;;;;;;;5.80;4.20;;;24.40;63.00;;;;;;5072981;28;20032;-71
2021/06/23 11:07:47;;;;;;;7.70;4.38;;;24.40;62.80;;;;;;5072603;28;20024;-69
2021/06/23 11:10:13;;;;;;;5.57;4.25;;;24.40;62.80;;;;;;5072154;28;20049;-70
2021/06/23 11:12:46;;;;;;;9.32;4.60;;;24.40;62.60;;;;;;5072642;28;20107;-71
2021/06/23 11:15:15;;;;;;;5.65;4.18;;;24.40;62.60;;;;;;5072439;28;20028;-70
2021/06/23 11:17:42;;;;;;;6.87;3.83;;;24.40;62.50;;;;;;5072495;28;20032;-70
2021/06/23 11:20:20;;;;;;;6.07;3.78;;;24.40;62.50;;;;;;5072006;28;20021;-71
2021/06/23 11:22:46;;;;;;;5.68;4.10;;;24.40;62.40;;;;;;5072182;28;20025;-71
2021/06/23 11:25:31;;;;;;;11.18;7.50;;;24.50;62.30;;;;;;5072198;28;20078;-70
2021/06/23 11:28:08;;;;;;;16.85;12.52;;;24.50;62.20;;;;;;5072072;28;20041;-71
2021/06/23 11:30:36;;;;;;;19.77;13.93;;;24.50;62.10;;;;;;5072090;28;20033;-71
2021/06/23 11:33:37;;;;;;;19.63;14.10;;;24.50;62.10;;;;;;5072179;28;20488;-71
2021/06/23 11:36:06;;;;;;;12.55;10.07;;;24.50;62.10;;;;;;5049553;28;20033;-71
2021/06/23 11:38:32;;;;;;;12.27;9.13;;;24.50;62.30;;;;;;5067860;28;20085;-73
2021/06/23 11:40:59;;;;;;;12.52;8.10;;;24.70;61.80;;;;;;5071931;28;20517;-73
2021/06/23 11:43:26;;;;;;;10.82;6.53;;;24.90;61.40;;;;;;5071964;28;20392;-69
2021/06/23 11:45:52;;;;;;;14.65;6.82;;;24.90;61.10;;;;;;5070602;28;20075;-71
2021/06/23 11:48:18;;;;;;;8.75;5.85;;;24.90;61.30;;;;;;5072049;28;20456;-70
2021/06/23 11:50:45;;;;;;;8.60;5.35;;;24.90;61.30;;;;;;5072072;28;20453;-70
2021/06/23 11:53:14;;;;;;;10.90;5.85;;;24.80;61.40;;;;;;5072182;28;20035;-69
2021/06/23 11:55:42;;;;;;;6.97;4.85;;;24.70;61.50;;;;;;5072089;28;20108;-70
2021/06/23 11:58:08;;;;;;;8.48;5.50;;;24.70;61.70;;;;;;5071794;28;20029;-69
2021/06/23 12:00:35;;;;;;;9.80;5.47;;;24.70;62.00;;;;;;5070830;28;20093;-70
2021/06/23 12:03:01;;;;;;;11.15;5.30;;;24.60;62.20;;;;;;5072133;28;20506;-70
2021/06/23 12:05:27;;;;;;;8.38;5.13;;;24.60;62.40;;;;;;5072089;28;20472;-70
2021/06/23 12:07:54;;;;;;;11.10;5.88;;;24.60;62.50;;;;;;5071117;28;20044;-70
2021/06/23 12:10:22;;;;;;;8.50;5.70;;;24.60;62.60;;;;;;5071767;28;20063;-70
2021/06/23 12:12:48;;;;;;;8.55;6.00;;;24.60;62.70;;;;;;5070173;28;20032;-69
2021/06/23 12:15:17;;;;;;;6.53;4.88;;;24.50;62.70;;;;;;5072231;28;20056;-69
2021/06/23 12:17:44;;;;;;;7.35;5.38;;;24.60;62.80;;;;;;5071656;28;20433;-70
2021/06/23 12:20:10;;;;;;;10.57;6.70;;;24.50;62.80;;;;;;5071673;28;20025;-70
2021/06/23 12:22:38;;;;;;;6.03;4.63;;;24.50;62.80;;;;;;5071777;28;20068;-70
2021/06/23 12:25:14;;;;;;;7.90;4.82;;;24.50;62.80;;;;;;5071691;28;20028;-70
2021/06/23 12:27:40;;;;;;;5.85;4.53;;;24.50;62.90;;;;;;5071964;28;20035;-70
2021/06/23 12:30:08;;;;;;;8.25;5.03;;;24.50;62.90;;;;;;5072005;28;20028;-70
2021/06/23 12:32:33;;;;;;;6.47;4.72;;;24.50;63.00;;;;;;5071735;28;20024;-70
2021/06/23 12:35:03;;;;;;;7.05;5.53;;;24.50;63.00;;;;;;5071834;28;20021;-70
2021/06/23 12:37:28;;;;;;;7.15;5.22;;;24.50;63.00;;;;;;5072421;28;20037;-70
2021/06/23 12:39:54;;;;;;;6.22;4.63;;;24.50;63.00;;;;;;5075250;28;20036;-70
2021/06/23 12:42:20;;;;;;;6.55;4.75;;;24.50;63.10;;;;;;5075484;28;20064;-70
2021/06/23 12:44:45;;;;;;;9.27;6.25;;;24.50;63.20;;;;;;5075456;28;20104;-70
2021/06/23 12:47:11;;;;;;;7.00;4.43;;;24.50;63.20;;;;;;5075426;28;20039;-70
2021/06/23 12:49:37;;;;;;;6.38;4.50;;;24.50;63.20;;;;;;5074876;28;20028;-70
2021/06/23 12:52:03;;;;;;;6.20;4.45;;;24.50;63.20;;;;;;5075101;28;20033;-70
2021/06/23 12:54:29;;;;;;;7.93;4.57;;;24.50;63.30;;;;;;5073356;28;20028;-70
2021/06/23 12:56:55;;;;;;;6.88;4.85;;;24.50;63.30;;;;;;5075069;28;20031;-70
2021/06/23 12:59:21;;;;;;;6.97;4.43;;;24.50;63.40;;;;;;5075151;28;20028;-70
2021/06/23 13:01:47;;;;;;;10.02;4.60;;;24.50;63.30;;;;;;5075037;28;20046;-70
2021/06/23 13:04:12;;;;;;;6.25;4.13;;;24.50;63.40;;;;;;5075083;28;20072;-70
2021/06/23 13:06:39;;;;;;;5.50;4.20;;;24.50;63.40;;;;;;5074896;28;20033;-70
2021/06/23 13:09:06;;;;;;;8.70;4.63;;;24.50;63.40;;;;;;5074493;28;20534;-70
2021/06/23 13:11:32;;;;;;;9.05;5.03;;;24.50;63.40;;;;;;5075315;28;20083;-70
2021/06/23 13:13:58;;;;;;;6.90;4.70;;;24.50;63.40;;;;;;5075184;28;20027;-70
2021/06/23 13:16:25;;;;;;;7.85;4.80;;;24.50;63.40;;;;;;5074758;28;20028;-70
2021/06/23 13:18:52;;;;;;;7.07;4.57;;;24.50;64.20;;;;;;5073722;28;20029;-69
2021/06/23 13:21:19;;;;;;;8.15;4.78;;;24.50;63.40;;;;;;5074827;28;20089;-68
2021/06/23 13:23:45;;;;;;;6.20;4.57;;;24.50;63.50;;;;;;5074621;28;20028;-70
2021/06/23 13:26:11;;;;;;;6.75;4.15;;;24.50;63.60;;;;;;5074649;28;20067;-70
2021/06/23 13:28:37;;;;;;;6.20;4.30;;;24.50;63.70;;;;;;5074337;28;20068;-70
2021/06/23 13:31:04;;;;;;;5.28;4.43;;;24.50;63.80;;;;;;5074559;28;20183;-70
2021/06/23 13:33:30;;;;;;;6.72;4.15;;;24.50;63.80;;;;;;5074362;28;20438;-70